Time;durP1;ratioP1;P1;durP2;ratioP2;P2;SDS_P1;SDS_P2;PMS_P1;PMS_P2;Temp;Humidity;BMP_temperature;BMP_pressure;BME280_temperature;BME280_humidity;BME280_pressure;Samples;Min_cycle;Max_cycle;Signal;HPM_P1;HPM_P2
2021/12/18 00:00:21;;;;;;;39.60;21.25;;;;;;;4.64;94.53;99618.22;10498904;28;20558;-71
2021/12/18 00:05:22;;;;;;;40.63;22.13;;;;;;;5.79;95.22;99799.25;10499020;28;20036;-71
2021/12/18 00:10:23;;;;;;;41.53;20.20;;;;;;;6.11;94.76;99854.13;10497979;28;20082;-71
2021/12/18 00:15:25;;;;;;;35.67;20.50;;;;;;;6.11;95.14;99872.59;10498674;28;20043;-71
2021/12/18 00:20:27;;;;;;;39.33;18.77;;;;;;;5.69;94.28;99830.94;10498428;28;20137;-71
2021/12/18 00:25:29;;;;;;;32.38;18.38;;;;;;;5.96;95.02;99876.72;10498549;28;20052;-74
2021/12/18 00:30:30;;;;;;;36.92;18.40;;;;;;;5.76;95.47;99823.28;10497781;28;20041;-71
2021/12/18 00:35:33;;;;;;;38.65;20.08;;;;;;;5.61;95.70;99784.25;10479408;28;20511;-71
2021/12/18 00:40:59;;;;;;;33.53;18.35;;;;;;;6.00;94.95;99843.78;10497296;28;20131;-71
2021/12/18 00:46:00;;;;;;;33.78;18.42;;;;;;;5.66;95.00;99807.53;10497569;28;20106;-71
2021/12/18 00:51:01;;;;;;;33.90;18.80;;;;;;;5.45;94.92;99777.03;10483828;28;20067;-71
2021/12/18 00:56:02;;;;;;;32.40;17.63;;;;;;;4.95;95.10;99697.66;10455654;28;20516;-72
2021/12/18 01:01:08;;;;;;;32.63;18.40;;;;;;;5.72;95.74;99817.47;10455902;28;20045;-71
2021/12/18 01:06:09;;;;;;;33.10;18.77;;;;;;;5.64;94.97;99822.66;10455317;28;20045;-71
2021/12/18 01:16:41;;;;;;;34.20;19.15;;;;;;;5.58;95.47;99815.34;10454197;28;20053;-71
2021/12/18 01:27:01;;;;;;;36.42;20.15;;;;;;;5.66;96.43;99818.06;10454715;28;20131;-71
2021/12/18 01:32:02;;;;;;;34.55;20.20;;;;;;;4.75;96.43;99660.91;10454576;28;20571;-71
2021/12/18 01:37:03;;;;;;;34.70;18.92;;;;;;;5.86;96.09;99829.28;10454246;28;20053;-74
2021/12/18 01:43:25;;;;;;;35.83;19.95;;;;;;;5.62;96.03;99785.91;10469868;28;20396;-71
2021/12/18 01:52:52;;;;;;;35.28;19.52;;;;;;;5.43;96.64;99771.06;10495924;28;20134;-71
2021/12/18 01:57:53;;;;;;;32.60;19.30;;;;;;;5.66;96.71;99804.91;10494634;28;20075;-71
2021/12/18 02:02:54;;;;;;;37.10;19.08;;;;;;;5.62;96.12;99801.72;10495559;28;20040;-71
2021/12/18 02:07:55;;;;;;;34.67;18.75;;;;;;;4.54;95.53;99637.47;10494577;28;20502;-71
2021/12/18 02:13:08;;;;;;;32.72;19.20;;;;;;;5.56;96.34;99819.94;10494651;28;20037;-71
2021/12/18 02:23:37;;;;;;;41.15;18.95;;;;;;;4.64;96.98;99647.97;10495134;28;20166;-71
2021/12/18 02:28:38;;;;;;;42.35;20.13;;;;;;;5.46;96.21;99778.66;10495629;28;20043;-73
2021/12/18 02:33:40;;;;;;;34.80;19.77;;;;;;;5.29;97.10;99750.50;10495522;28;20447;-71
2021/12/18 02:43:51;;;;;;;45.95;20.35;;;;;;;5.73;97.62;99787.50;10494433;28;20086;-71
2021/12/18 02:48:54;;;;;;;34.00;19.23;;;;;;;5.81;97.13;99808.66;10502684;28;20059;-71
2021/12/18 02:53:55;;;;;;;35.03;19.40;;;;;;;5.69;96.55;99776.44;10540477;28;20078;-72
2021/12/18 02:59:03;;;;;;;35.33;18.42;;;;;;;5.80;97.00;99809.63;10543691;28;20043;-71
2021/12/18 03:04:15;;;;;;;29.73;18.05;;;;;;;5.75;96.41;99798.72;10542790;28;20043;-71
2021/12/18 03:09:48;;;;;;;36.50;18.98;;;;;;;5.62;96.69;99777.16;10542493;28;20085;-71
2021/12/18 03:25:26;;;;;;;38.80;19.70;;;;;;;5.53;95.94;99788.59;10542310;28;20043;-71
2021/12/18 03:30:27;;;;;;;34.35;18.20;;;;;;;4.78;95.94;99689.56;10541799;28;20036;-71
2021/12/18 03:35:29;;;;;;;32.35;17.92;;;;;;;4.73;96.41;99694.44;10541586;28;20043;-71
2021/12/18 03:40:30;;;;;;;43.00;18.48;;;;;;;4.80;97.25;99713.09;10541791;28;20446;-71
2021/12/18 03:45:31;;;;;;;31.27;18.60;;;;;;;5.59;96.74;99849.44;10541346;28;20043;-71
2021/12/18 03:50:31;;;;;;;36.10;18.60;;;;;;;5.22;96.58;99804.75;10542226;28;20056;-71
2021/12/18 03:55:32;;;;;;;35.40;17.67;;;;;;;4.62;96.85;99701.69;10541423;28;20149;-71
2021/12/18 04:00:33;;;;;;;34.35;16.77;;;;;;;5.25;96.54;99820.25;10540824;28;20074;-71
2021/12/18 04:05:34;;;;;;;33.25;17.83;;;;;;;5.36;96.51;99859.56;10539385;28;20111;-71
2021/12/18 04:10:41;;;;;;;31.48;18.00;;;;;;;5.49;97.03;99877.66;10541454;28;20126;-70
2021/12/18 04:15:42;;;;;;;29.10;17.27;;;;;;;5.52;96.94;99884.44;10540478;28;20047;-71
2021/12/18 04:20:42;;;;;;;36.88;17.92;;;;;;;5.57;97.39;99892.75;10488117;28;20045;-71
2021/12/18 04:25:44;;;;;;;32.55;18.02;;;;;;;5.31;97.07;99864.44;10463831;28;20451;-71
2021/12/18 04:30:44;;;;;;;35.35;19.13;;;;;;;4.88;97.34;99781.63;10465585;28;20068;-71
2021/12/18 04:35:46;;;;;;;43.22;18.02;;;;;;;3.97;96.64;99631.50;10456218;28;20068;-71
2021/12/18 04:40:49;;;;;;;35.30;18.00;;;;;;;5.56;97.23;99917.41;10456816;28;20037;-71
2021/12/18 04:45:50;;;;;;;36.17;17.52;;;;;;;5.29;96.92;99844.47;10456716;28;20041;-71
2021/12/18 04:50:50;;;;;;;34.90;18.70;;;;;;;5.63;97.54;99907.97;10456179;28;20068;-71
2021/12/18 04:55:51;;;;;;;39.58;19.50;;;;;;;5.63;97.64;99921.13;10455987;28;20492;-71
2021/12/18 05:00:53;;;;;;;39.83;19.58;;;;;;;4.83;97.60;99783.03;10454722;28;20496;-71
2021/12/18 05:05:54;;;;;;;33.50;19.27;;;;;;;5.49;97.65;99907.47;10457947;28;20036;-72
2021/12/18 05:10:56;;;;;;;38.50;18.50;;;;;;;4.83;97.42;99783.84;10476180;28;20064;-72
2021/12/18 05:15:57;;;;;;;33.20;18.05;;;;;;;5.72;97.62;99925.53;10496390;28;20131;-74
2021/12/18 05:20:58;;;;;;;35.53;17.50;;;;;;;5.28;96.97;99859.47;10538261;28;20043;-70
2021/12/18 05:25:59;;;;;;;40.80;18.77;;;;;;;5.42;97.10;99887.94;10537411;28;20123;-72
2021/12/18 05:31:00;;;;;;;44.65;20.10;;;;;;;4.97;97.08;99830.78;10476787;28;20040;-72
2021/12/18 05:36:03;;;;;;;32.67;19.05;;;;;;;5.88;97.89;99978.41;10537340;28;20407;-72
2021/12/18 05:41:04;;;;;;;36.15;18.92;;;;;;;5.71;97.45;99939.66;10536710;28;20406;-71
2021/12/18 05:46:04;;;;;;;36.45;18.95;;;;;;;5.94;97.44;99985.78;10538820;28;20132;-71
2021/12/18 05:51:06;;;;;;;39.97;20.77;;;;;;;5.61;97.06;99920.44;10537034;28;20093;-72
2021/12/18 05:56:06;;;;;;;34.22;19.05;;;;;;;6.09;97.34;99978.19;10537484;28;20040;-72
2021/12/18 06:01:07;;;;;;;31.95;18.02;;;;;;;6.07;96.71;99981.97;10536781;28;20044;-71
2021/12/18 06:06:08;;;;;;;30.15;17.65;;;;;;;6.07;96.79;99964.34;10536589;28;20040;-71
2021/12/18 06:11:14;;;;;;;31.85;19.80;;;;;;;5.10;96.73;99775.16;10536454;28;20124;-72
2021/12/18 06:16:16;;;;;;;32.58;18.95;;;;;;;6.28;96.50;99944.75;10536460;28;20161;-72
2021/12/18 06:21:18;;;;;;;31.40;18.30;;;;;;;6.29;95.94;99925.34;10536956;28;20047;-72
2021/12/18 06:26:20;;;;;;;35.92;19.77;;;;;;;6.66;95.68;99972.66;10537499;28;20051;-72
2021/12/18 06:31:22;;;;;;;35.25;19.00;;;;;;;6.94;95.11;99964.63;10545264;28;20040;-72
2021/12/18 06:36:23;;;;;;;31.60;19.27;;;;;;;7.02;95.02;99954.13;10544563;28;20040;-72
2021/12/18 06:41:24;;;;;;;31.88;18.75;;;;;;;6.77;94.09;99906.44;10544810;28;20035;-72
2021/12/18 06:46:25;;;;;;;30.65;18.35;;;;;;;7.16;94.41;99942.19;10543892;28;20407;-71
2021/12/18 06:51:26;;;;;;;30.20;18.45;;;;;;;6.30;92.94;99785.34;10525794;28;20051;-71
2021/12/18 06:56:27;;;;;;;33.58;19.33;;;;;;;6.09;93.48;99755.88;10543876;28;20047;-71
2021/12/18 07:01:27;;;;;;;30.30;18.65;;;;;;;6.48;93.02;99771.31;10542772;28;20491;-70
2021/12/18 07:06:30;;;;;;;40.55;19.10;;;;;;;7.69;91.78;99922.63;10543264;28;20056;-72
2021/12/18 07:11:31;;;;;;;35.85;18.92;;;;;;;8.00;91.48;99912.28;10543438;28;20036;-73
2021/12/18 07:16:32;;;;;;;28.80;17.58;;;;;;;8.39;89.35;99896.66;10524216;28;20143;-71
2021/12/18 07:21:32;;;;;;;29.63;16.60;;;;;;;8.27;85.71;99831.81;10543187;28;20054;-71
2021/12/18 07:26:34;;;;;;;29.27;16.67;;;;;;;8.74;87.92;99868.19;10524460;28;20044;-71
2021/12/18 07:31:34;;;;;;;27.67;16.65;;;;;;;8.53;85.13;99730.25;10542766;28;20064;-71
2021/12/18 07:36:35;;;;;;;31.42;17.05;;;;;;;9.71;85.15;99898.03;10511459;28;20531;-71
2021/12/18 07:41:37;;;;;;;28.80;16.27;;;;;;;9.28;82.57;99774.81;10540028;28;20044;-71
2021/12/18 07:46:38;;;;;;;24.33;15.75;;;;;;;9.13;82.13;99761.47;10541635;28;20089;-71
2021/12/18 07:51:39;;;;;;;20.58;15.23;;;;;;;8.78;82.21;99731.78;10541816;28;20062;-71
2021/12/18 07:56:40;;;;;;;22.13;15.23;;;;;;;9.90;83.57;99912.72;10541871;28;20452;-71
2021/12/18 08:01:41;;;;;;;23.92;16.10;;;;;;;9.68;82.28;99898.38;10541080;28;20044;-71
2021/12/18 08:06:42;;;;;;;24.50;15.85;;;;;;;8.89;82.59;99765.03;10540835;28;20051;-71
2021/12/18 08:11:42;;;;;;;23.13;15.95;;;;;;;9.92;81.49;99884.16;10540910;28;20043;-71
2021/12/18 08:16:43;;;;;;;23.30;14.90;;;;;;;9.77;81.32;99870.00;10526399;28;20040;-71
2021/12/18 08:21:44;;;;;;;27.38;18.27;;;;;;;9.89;81.80;99878.38;10538074;28;20044;-70
2021/12/18 08:26:45;;;;;;;30.88;17.13;;;;;;;10.22;81.29;99879.00;10540189;28;20040;-71
2021/12/18 08:31:46;;;;;;;36.50;26.00;;;;;;;10.24;80.27;99877.81;10522462;28;20131;-71
2021/12/18 08:36:48;;;;;;;26.45;19.40;;;;;;;9.80;79.57;99832.50;10539817;28;20044;-71
2021/12/18 08:41:49;;;;;;;25.60;16.80;;;;;;;9.13;79.71;99759.63;10539680;28;20052;-70
2021/12/18 08:46:50;;;;;;;22.50;16.65;;;;;;;9.52;80.63;99859.50;10521117;28;20039;-71
2021/12/18 08:51:52;;;;;;;23.08;15.43;;;;;;;9.66;80.68;99887.13;10538069;28;20422;-71
2021/12/18 08:56:53;;;;;;;29.95;15.85;;;;;;;9.55;81.20;99885.69;10520554;28;20071;-70
2021/12/18 09:01:54;;;;;;;22.83;15.18;;;;;;;8.94;80.81;99809.53;10538657;28;20070;-70
2021/12/18 09:06:55;;;;;;;23.00;15.32;;;;;;;8.54;81.10;99753.88;10538431;28;20035;-71
2021/12/18 09:11:56;;;;;;;25.90;16.67;;;;;;;9.06;80.60;99827.56;10538241;28;20047;-71
2021/12/18 09:16:57;;;;;;;25.88;15.43;;;;;;;9.42;81.13;99866.84;10538642;28;20051;-71
2021/12/18 09:21:59;;;;;;;27.20;18.13;;;;;;;9.46;81.36;99865.50;10537453;28;20044;-70
2021/12/18 09:27:00;;;;;;;27.23;18.15;;;;;;;9.21;80.72;99813.59;10538052;28;20093;-70
2021/12/18 09:32:00;;;;;;;31.52;16.42;;;;;;;8.91;80.41;99777.13;10523629;28;20033;-71
2021/12/18 09:37:02;;;;;;;25.25;15.15;;;;;;;9.54;80.35;99868.13;10477562;28;20044;-71
2021/12/18 09:42:04;;;;;;;26.33;16.48;;;;;;;9.36;79.59;99838.38;10495867;28;20476;-70
2021/12/18 09:47:05;;;;;;;23.42;15.43;;;;;;;9.71;79.48;99870.69;10494625;28;20097;-70
2021/12/18 09:52:06;;;;;;;26.98;14.57;;;;;;;9.69;80.59;99868.22;10471767;28;20061;-71
2021/12/18 09:57:08;;;;;;;18.15;11.95;;;;;;;9.12;80.14;99771.25;10496314;28;20040;-71
2021/12/18 10:02:09;;;;;;;20.13;13.07;;;;;;;9.70;79.99;99842.53;10499759;28;20044;-71
2021/12/18 10:07:16;;;;;;;21.83;14.85;;;;;;;9.83;79.48;99853.38;10504240;28;20476;-71
2021/12/18 10:12:29;;;;;;;18.73;12.50;;;;;;;9.56;79.69;99815.72;10502903;28;20055;-70
2021/12/18 10:17:34;;;;;;;18.58;13.18;;;;;;;9.60;80.76;99848.03;10503504;28;20044;-71
2021/12/18 10:22:35;;;;;;;22.13;14.18;;;;;;;9.33;81.41;99804.25;10503662;28;20640;-71
2021/12/18 10:27:37;;;;;;;19.90;13.38;;;;;;;9.37;81.42;99808.22;10503084;28;20043;-71
2021/12/18 10:32:38;;;;;;;19.50;13.73;;;;;;;9.49;81.77;99841.31;10501661;28;20403;-70
2021/12/18 10:37:39;;;;;;;23.77;12.60;;;;;;;8.78;80.64;99712.44;10501872;28;20499;-71
2021/12/18 10:42:49;;;;;;;17.95;12.10;;;;;;;9.47;81.00;99824.72;10500527;28;20048;-71
2021/12/18 10:47:56;;;;;;;21.95;14.27;;;;;;;9.49;80.69;99819.28;10501262;28;20159;-71
2021/12/18 10:53:00;;;;;;;21.92;13.68;;;;;;;9.32;81.29;99800.78;10461206;28;20048;-71
2021/12/18 10:58:03;;;;;;;18.15;12.00;;;;;;;9.06;81.08;99763.97;10459242;28;20047;-72
2021/12/18 11:03:38;;;;;;;18.27;13.07;;;;;;;8.90;80.44;99729.59;10460226;28;20215;-70
2021/12/18 11:09:14;;;;;;;24.13;13.32;;;;;;;9.50;81.22;99819.09;10450703;28;20527;-71
2021/12/18 11:14:18;;;;;;;21.42;13.20;;;;;;;8.68;81.26;99694.94;10451676;28;20044;-70
2021/12/18 11:19:23;;;;;;;18.27;11.57;;;;;;;9.64;80.82;99820.19;10460049;28;20508;-70
2021/12/18 11:24:44;;;;;;;23.30;14.07;;;;;;;9.54;80.70;99774.47;10458985;28;20072;-71
2021/12/18 11:29:51;;;;;;;39.28;21.52;;;;;;;9.91;79.80;99818.03;10459432;28;20076;-71
2021/12/18 11:34:54;;;;;;;25.23;15.10;;;;;;;9.83;79.85;99822.38;10459184;28;20033;-73
2021/12/18 11:39:58;;;;;;;20.08;13.68;;;;;;;9.79;80.00;99829.03;10459219;28;20049;-70
2021/12/18 11:45:02;;;;;;;16.92;12.25;;;;;;;9.75;79.03;99834.84;10458506;28;20504;-71
2021/12/18 11:50:20;;;;;;;;;;;;;;;9.65;80.56;99821.00;10477414;28;20185;-71
2021/12/18 11:55:22;;;;;;;29.40;16.55;;;;;;;9.35;80.52;99828.78;10499668;28;19966;-71
2021/12/18 12:00:39;;;;;;;30.92;18.35;;;;;;;7.81;80.40;99598.75;10499518;28;20045;-71
2021/12/18 12:05:48;;;;;;;32.08;15.90;;;;;;;9.27;80.21;99847.34;10498712;28;20047;-71
2021/12/18 12:11:39;;;;;;;26.17;15.32;;;;;;;9.32;80.78;99839.72;10498409;28;20044;-71
2021/12/18 12:16:46;;;;;;;28.10;15.57;;;;;;;8.40;81.32;99709.56;10459318;28;20147;-72
2021/12/18 12:21:53;;;;;;;35.22;26.35;;;;;;;9.17;81.22;99852.03;10488718;28;20048;-70
2021/12/18 12:27:14;;;;;;;22.08;14.75;;;;;;;8.22;81.71;99707.09;10497279;28;20036;-70
2021/12/18 12:32:16;;;;;;;18.42;12.27;;;;;;;8.58;81.57;99788.78;10480107;28;20055;-69
2021/12/18 12:37:23;;;;;;;18.63;12.23;;;;;;;8.83;82.34;99853.94;10497373;28;20037;-70
2021/12/18 12:42:24;;;;;;;16.95;11.82;;;;;;;8.13;81.83;99745.16;10497220;28;20110;-70
2021/12/18 12:47:27;;;;;;;18.30;12.07;;;;;;;8.52;82.36;99822.03;10497716;28;20086;-70
2021/12/18 12:52:30;;;;;;;18.00;11.93;;;;;;;8.52;82.05;99835.28;10496637;28;20056;-70
2021/12/18 12:57:36;;;;;;;21.27;13.23;;;;;;;8.40;82.43;99844.56;10496533;28;20476;-71
2021/12/18 13:02:39;;;;;;;16.17;11.40;;;;;;;8.06;82.35;99819.06;10478860;28;20430;-70
2021/12/18 13:07:59;;;;;;;22.73;11.80;;;;;;;8.30;82.75;99854.47;10478867;28;20040;-70
2021/12/18 13:13:11;;;;;;;20.88;14.23;;;;;;;7.76;83.07;99779.03;10495977;28;20055;-70
2021/12/18 13:18:13;;;;;;;17.30;11.43;;;;;;;8.40;83.42;99881.59;10479117;28;20040;-70
2021/12/18 13:23:18;;;;;;;25.27;13.88;;;;;;;7.70;82.82;99747.97;10495963;28;20040;-69
2021/12/18 13:28:20;;;;;;;24.20;15.23;;;;;;;8.38;83.06;99880.94;10497251;28;20043;-69
2021/12/18 13:33:28;;;;;;;22.88;14.07;;;;;;;7.70;83.19;99778.88;10474999;28;20049;-71
2021/12/18 13:38:38;;;;;;;29.65;14.93;;;;;;;8.10;83.38;99843.38;10468620;28;20408;-72
2021/12/18 13:43:40;;;;;;;21.17;13.40;;;;;;;8.40;82.89;99900.97;10467415;28;20045;-69
2021/12/18 13:48:44;;;;;;;23.52;13.18;;;;;;;8.30;82.79;99880.94;10469037;28;20079;-72
2021/12/18 13:54:00;;;;;;;35.75;15.23;;;;;;;8.14;83.00;99866.69;10461159;28;20042;-71
2021/12/18 13:59:13;;;;;;;15.48;10.95;;;;;;;8.09;82.81;99870.81;10461837;28;20179;-71
2021/12/18 14:04:20;;;;;;;19.27;13.40;;;;;;;8.09;82.45;99857.59;10457949;28;20049;-73
2021/12/18 14:09:24;;;;;;;45.45;28.45;;;;;;;8.50;82.25;99902.66;10472095;28;20094;-72
2021/12/18 14:14:38;;;;;;;26.35;15.48;;;;;;;8.08;81.55;99837.44;10490588;28;20048;-71
2021/12/18 14:19:43;;;;;;;33.97;20.42;;;;;;;8.06;82.48;99876.44;10486436;28;20059;-70
2021/12/18 14:24:44;;;;;;;25.05;14.52;;;;;;;6.69;82.16;99652.97;10471249;28;20055;-71
2021/12/18 14:29:54;;;;;;;33.03;16.83;;;;;;;7.58;82.72;99783.63;10477800;28;20044;-72
2021/12/18 14:35:04;;;;;;;25.23;15.80;;;;;;;7.62;82.80;99792.88;10473360;28;20049;-71
2021/12/18 14:40:05;;;;;;;24.33;15.20;;;;;;;8.34;82.76;99927.22;10462913;28;20048;-70
2021/12/18 14:45:25;;;;;;;27.13;15.70;;;;;;;7.71;83.15;99839.50;10453080;28;20040;-71
2021/12/18 14:50:29;;;;;;;30.90;15.10;;;;;;;7.89;82.85;99883.50;10460160;28;20447;-71
2021/12/18 14:55:45;;;;;;;24.52;15.18;;;;;;;7.53;83.47;99830.84;10476229;28;20500;-72
2021/12/18 15:00:58;;;;;;;28.52;15.40;;;;;;;8.37;83.21;99962.13;10481176;28;20499;-73
2021/12/18 15:06:16;;;;;;;27.58;16.15;;;;;;;8.34;83.55;99972.22;10500766;28;20123;-72
2021/12/18 15:11:38;;;;;;;34.13;19.60;;;;;;;8.14;83.38;99955.81;10500823;28;20044;-72
2021/12/18 15:16:58;;;;;;;38.60;20.67;;;;;;;7.51;83.49;99843.44;10482874;28;20522;-74
2021/12/18 15:22:08;;;;;;;30.55;18.38;;;;;;;8.28;83.63;99978.16;10499037;28;20043;-72
2021/12/18 15:27:10;;;;;;;47.38;27.42;;;;;;;8.17;83.57;99956.31;10458579;28;20076;-72
2021/12/18 15:32:13;;;;;;;36.65;22.95;;;;;;;7.62;83.52;99874.00;10460058;28;20057;-74
2021/12/18 15:37:14;;;;;;;25.80;16.98;;;;;;;7.85;84.48;99932.44;10472629;28;20094;-72
2021/12/18 15:42:21;;;;;;;28.35;16.25;;;;;;;8.02;84.91;99997.63;10491827;28;20097;-71
2021/12/18 15:47:22;;;;;;;29.65;16.70;;;;;;;7.64;84.47;99919.63;10458881;28;20401;-73
2021/12/18 15:52:23;;;;;;;36.05;19.13;;;;;;;7.71;84.82;99932.03;10458550;28;20064;-70
2021/12/18 15:57:24;;;;;;;35.25;19.88;;;;;;;7.95;84.62;99962.19;10456131;28;20041;-69
2021/12/18 16:02:25;;;;;;;39.65;20.50;;;;;;;6.54;84.45;99731.09;10469629;28;20044;-69
2021/12/18 16:07:26;;;;;;;36.60;22.13;;;;;;;7.66;84.85;99929.06;10474639;28;20547;-69
2021/12/18 16:12:27;;;;;;;38.40;20.38;;;;;;;7.86;85.17;99963.16;10480118;28;20051;-69
2021/12/18 16:17:28;;;;;;;42.15;24.83;;;;;;;7.77;85.55;99960.47;10488757;28;20041;-69
2021/12/18 16:22:29;;;;;;;34.47;20.80;;;;;;;7.68;85.98;99966.72;10457629;28;20397;-69
2021/12/18 16:27:29;;;;;;;26.88;15.60;;;;;;;7.45;86.30;99929.47;10472504;28;20040;-71
2021/12/18 16:32:30;;;;;;;24.00;15.02;;;;;;;6.58;86.09;99799.25;10469452;28;20039;-70
2021/12/18 16:37:32;;;;;;;22.95;15.85;;;;;;;7.35;87.25;99951.69;10494951;28;20127;-70
2021/12/18 16:42:33;;;;;;;20.55;13.55;;;;;;;7.35;87.39;99941.13;10494664;28;20397;-70
2021/12/18 16:47:34;;;;;;;21.95;14.40;;;;;;;7.63;87.63;99973.47;10467369;28;20045;-70
2021/12/18 16:52:35;;;;;;;42.50;21.20;;;;;;;7.58;87.21;99965.19;10457446;28;20409;-70
2021/12/18 16:57:36;;;;;;;25.10;15.25;;;;;;;6.06;86.82;99719.25;10437970;28;20086;-69
2021/12/18 17:02:38;;;;;;;28.00;15.45;;;;;;;7.48;87.08;99960.84;10455480;28;20036;-69
2021/12/18 17:07:39;;;;;;;28.77;15.35;;;;;;;6.91;87.68;99886.56;10468717;28;20041;-69
2021/12/18 17:12:40;;;;;;;24.85;14.70;;;;;;;6.61;87.67;99853.50;10455282;28;20094;-69
2021/12/18 17:17:41;;;;;;;24.88;14.82;;;;;;;6.98;88.45;99927.19;10436870;28;20409;-69
2021/12/18 17:22:42;;;;;;;23.88;15.30;;;;;;;6.21;87.86;99804.75;10455333;28;20047;-69
2021/12/18 17:27:44;;;;;;;24.23;14.77;;;;;;;6.60;88.34;99881.72;10455014;28;20130;-69
2021/12/18 17:32:45;;;;;;;30.52;14.20;;;;;;;6.28;88.88;99834.81;10455052;28;20048;-70
2021/12/18 17:37:46;;;;;;;25.25;15.77;;;;;;;6.95;88.78;99943.34;10454772;28;20045;-69
2021/12/18 17:42:49;;;;;;;28.52;18.75;;;;;;;7.05;88.96;99965.19;10453925;28;20033;-69
2021/12/18 17:47:51;;;;;;;24.95;14.88;;;;;;;6.80;89.13;99919.31;10454042;28;20091;-69
2021/12/18 17:52:52;;;;;;;26.25;15.23;;;;;;;6.97;89.53;99966.94;10454993;28;20041;-69
2021/12/18 17:57:54;;;;;;;24.15;15.52;;;;;;;7.03;90.07;99975.13;10460390;28;20078;-69
2021/12/18 18:02:56;;;;;;;26.67;15.45;;;;;;;6.70;89.36;99905.41;10487715;28;20122;-69
2021/12/18 18:07:57;;;;;;;24.70;15.98;;;;;;;6.44;89.68;99894.78;10474306;28;20052;-69
2021/12/18 18:12:58;;;;;;;26.75;16.05;;;;;;;6.48;89.67;99882.94;10491971;28;20040;-70
2021/12/18 18:17:59;;;;;;;29.63;15.60;;;;;;;7.02;90.10;99999.03;10494953;28;20048;-70
2021/12/18 18:23:00;;;;;;;28.77;15.93;;;;;;;5.66;90.20;99770.63;10479286;28;20043;-70
2021/12/18 18:28:01;;;;;;;25.55;15.77;;;;;;;6.82;90.45;99993.94;10500928;28;20032;-70
2021/12/18 18:33:03;;;;;;;31.63;16.92;;;;;;;6.08;90.92;99878.16;10498107;28;20052;-70
2021/12/18 18:38:04;;;;;;;29.55;16.67;;;;;;;6.68;91.41;99994.47;10498951;28;20028;-71
2021/12/18 18:43:06;;;;;;;26.08;15.43;;;;;;;7.03;91.95;100045.56;10481855;28;20458;-73
2021/12/18 18:53:19;;;;;;;5.50;3.25;;;;;;;6.49;93.25;100063.19;10501860;28;20047;-72
2021/12/18 18:58:20;;;;;;;3.67;2.20;;;;;;;5.93;94.10;100022.84;10485731;28;20056;-72
2021/12/18 19:03:22;;;;;;;4.40;2.10;;;;;;;5.85;93.71;100025.34;10486545;28;20036;-72
2021/12/18 19:08:23;;;;;;;5.53;1.88;;;;;;;5.20;93.95;99944.44;10501727;28;20450;-72
2021/12/18 19:13:27;;;;;;;5.32;2.67;;;;;;;5.02;95.45;99946.16;10478396;28;20041;-72
2021/12/18 19:18:35;;;;;;;4.70;2.80;;;;;;;5.19;95.13;100031.50;10442097;28;20045;-72
2021/12/18 19:23:36;;;;;;;8.70;3.17;;;;;;;5.12;95.96;100060.19;10459416;28;20049;-72
2021/12/18 19:28:38;;;;;;;6.38;3.70;;;;;;;4.95;97.11;100035.38;10460042;28;20035;-72
2021/12/18 19:33:39;;;;;;;9.23;4.25;;;;;;;4.67;95.77;100018.63;10458245;28;20404;-72
2021/12/18 19:38:42;;;;;;;7.43;4.72;;;;;;;4.04;95.95;99961.13;10458456;28;20033;-72
2021/12/18 19:43:43;;;;;;;9.40;5.47;;;;;;;4.72;95.91;100099.78;10458719;28;20530;-72
2021/12/18 19:48:44;;;;;;;12.50;7.20;;;;;;;4.65;97.26;100090.78;10458781;28;20179;-72
2021/12/18 19:53:47;;;;;;;10.80;6.57;;;;;;;4.69;96.56;100127.19;10458406;28;20048;-71
2021/12/18 19:58:48;;;;;;;9.55;5.82;;;;;;;4.33;96.47;100104.94;10458096;28;20041;-71
2021/12/18 20:09:08;;;;;;;7.90;4.70;;;;;;;3.16;96.45;99967.81;10457337;28;20068;-71
2021/12/18 20:14:09;;;;;;;8.27;5.15;;;;;;;4.07;96.45;100155.38;10456759;28;20465;-72
2021/12/18 20:19:10;;;;;;;7.70;5.05;;;;;;;3.84;96.72;100131.03;10457652;28;20052;-72
2021/12/18 20:24:11;;;;;;;11.15;5.10;;;;;;;3.98;96.58;100171.06;10457130;28;20072;-72
2021/12/18 20:29:12;;;;;;;8.98;4.20;;;;;;;3.57;96.61;100134.19;10457127;28;20509;-72
2021/12/18 20:34:13;;;;;;;8.98;6.20;;;;;;;3.27;97.16;100116.56;10456180;28;20174;-72
2021/12/18 20:39:14;;;;;;;11.43;7.18;;;;;;;3.34;96.49;100154.47;10457303;28;20408;-71
2021/12/18 20:44:15;;;;;;;8.93;6.60;;;;;;;3.28;96.84;100188.28;10438277;28;20040;-71
2021/12/18 20:49:16;;;;;;;9.00;6.20;;;;;;;3.05;97.40;100177.88;10455514;28;20053;-71
2021/12/18 20:54:17;;;;;;;11.18;7.30;;;;;;;2.63;96.66;100151.47;10464653;28;20045;-71
2021/12/18 20:59:19;;;;;;;11.50;8.30;;;;;;;2.33;96.96;100146.84;10488671;28;20131;-71
2021/12/18 21:04:20;;;;;;;15.10;9.27;;;;;;;2.68;97.04;100228.00;10495462;28;20044;-72
2021/12/18 21:09:20;;;;;;;15.68;9.60;;;;;;;1.63;97.05;100071.94;10497760;28;20037;-71
2021/12/18 21:14:21;;;;;;;15.98;10.00;;;;;;;2.42;96.94;100222.19;10494922;28;20492;-71
2021/12/18 21:19:23;;;;;;;14.38;10.20;;;;;;;2.35;96.60;100241.94;10495335;28;20719;-71
2021/12/18 21:24:24;;;;;;;16.38;9.65;;;;;;;2.28;96.56;100256.47;10496584;28;20040;-71
2021/12/18 21:29:25;;;;;;;15.98;9.68;;;;;;;2.12;96.84;100256.78;10497068;28;20055;-71
2021/12/18 21:39:47;;;;;;;12.20;8.27;;;;;;;1.77;96.56;100247.19;10495525;28;20063;-71
2021/12/18 21:44:50;;;;;;;12.38;8.02;;;;;;;1.69;97.33;100273.09;10495964;28;20048;-70
2021/12/18 21:49:51;;;;;;;10.57;7.53;;;;;;;0.70;97.12;100112.88;10495590;28;20069;-70
2021/12/18 21:54:51;;;;;;;15.55;7.50;;;;;;;1.35;96.99;100235.47;10496639;28;20036;-70
2021/12/18 21:59:52;;;;;;;10.85;7.47;;;;;;;1.15;97.84;100210.72;10503042;28;20130;-70
2021/12/18 22:04:53;;;;;;;12.27;7.43;;;;;;;0.53;97.56;100111.47;10486168;28;20043;-70
2021/12/18 22:09:54;;;;;;;11.88;7.32;;;;;;;1.24;97.32;100240.63;10503144;28;20090;-70
2021/12/18 22:14:55;;;;;;;12.40;6.93;;;;;;;1.24;98.45;100251.94;10503722;28;20060;-70
2021/12/18 22:19:56;;;;;;;11.80;7.50;;;;;;;1.16;98.56;100240.34;10503784;28;20047;-70
2021/12/18 22:24:56;;;;;;;14.85;8.77;;;;;;;1.15;98.61;100247.34;10502787;28;20044;-71
2021/12/18 22:29:57;;;;;;;14.95;8.43;;;;;;;0.33;98.78;100105.91;10502389;28;20063;-71
2021/12/18 22:34:58;;;;;;;14.07;9.10;;;;;;;1.26;99.03;100275.38;10502615;28;20064;-71
2021/12/18 22:39:59;;;;;;;12.70;8.02;;;;;;;1.12;99.37;100250.19;10503338;28;20068;-71
2021/12/18 22:45:01;;;;;;;15.25;9.18;;;;;;;1.29;99.17;100283.00;10502575;28;20036;-70
2021/12/18 22:50:04;;;;;;;13.00;8.50;;;;;;;0.55;99.10;100144.41;10501055;28;20056;-70
2021/12/18 22:55:05;;;;;;;11.13;7.30;;;;;;;1.32;99.12;100272.31;10501000;28;20048;-71
2021/12/18 23:00:26;;;;;;;15.27;8.50;;;;;;;1.63;99.27;100302.34;10502222;28;20048;-75
2021/12/18 23:05:28;;;;;;;12.65;8.18;;;;;;;1.02;98.95;100204.72;10469984;28;20044;-71
2021/12/18 23:10:29;;;;;;;11.35;8.13;;;;;;;1.69;98.78;100312.38;10500868;28;20090;-71
2021/12/18 23:15:50;;;;;;;16.05;8.25;;;;;;;1.73;99.06;100319.03;10500267;28;20044;-71
2021/12/18 23:20:54;;;;;;;11.77;7.25;;;;;;;1.70;98.58;100314.03;10501147;28;20044;-71
2021/12/18 23:25:56;;;;;;;12.52;7.45;;;;;;;1.29;99.01;100255.06;10499648;28;20130;-72
2021/12/18 23:30:56;;;;;;;11.25;7.40;;;;;;;1.11;98.49;100238.91;10501660;28;20044;-72
2021/12/18 23:36:01;;;;;;;12.70;8.27;;;;;;;1.53;98.90;100290.88;10500618;28;20036;-72
2021/12/18 23:41:03;;;;;;;;;;;;;;;1.85;99.04;100338.25;10501345;28;20043;-71
2021/12/18 23:51:27;;;;;;;17.50;9.20;;;;;;;0.86;98.28;100205.78;10501021;28;20052;-71
2021/12/18 23:56:28;;;;;;;17.55;11.23;;;;;;;1.67;98.30;100339.59;10499680;28;20037;-71
